KTOA/TOA METAR and TAF weather

Enter ICAO airport designator
Station Type Date Time Source
KTOA METAR 2019/08/25 02:47 UTC NOAA

KTOA 250247Z 27010KT 10SM FEW020 21/18 A2991 RMK LAST


Station Type Date Time Source
KTOA Decoded METAR 2019/08/25 02:47 UTC NOAA

Station name not available
Aug 24, 2019 - 10:47 PM EDT / 2019.08.25 0247 UTC
Wind: from the W (270 degrees) at 12 MPH (10 KT):0
Visibility: 10 mile(s):0
Sky conditions: mostly clear
Temperature: 69 F (21 C)
Dew Point: 64 F (18 C)
Relative Humidity: 82%
Pressure (altimeter): 29.91 in. Hg (1012 hPa)
ob: KTOA 250247Z 27010KT 10SM FEW020 21/18 A2991 RMK LAST
cycle: 3

Station Type Date Time Source
KTOA TAF UTC NOAA

Error!

Example: see airport list